Portada
METAR-TAF:

METAR-TAF

Aeropuertos :

Cascaes, Portugal

latitud: 38-43-32N, longitud: 009-21-19W, altitud: 99 m

Observación

El informe se hizo hace 6 horas y 45 minutos, a las 16:00 UTC
Viento 9 kt del oeste
Temperatura 11°C
Humedad 62%
Presión 1006 hPa
Visibilidad 10 km o más
Escasas nubes a una altura de 1800 ft

METAR: LPCS 311600Z 27009KT 9999 FEW018 11/04 Q1006

Hora: 23:45 (22:45 UTC)

Pronóstico

El informe se hizo hace 8 horas y 45 minutos, a las 14:00 UTC
Pronóstico válido del 31 a las 15 UTC al 31 a las 24 UTC
Viento 12 kt del noroeste
Visibilidad 10 km o más
Escasas nubes a una altura de 1500 ft
Cielo nuboso a una altura de 2000 ft
Evolucionando progresivamente
del 31 a las 15 UTC al 31 a las 18 UTC
Nubes dispersas a una altura de 4000 ft
Evolucionando progresivamente
del 31 a las 19 UTC al 31 a las 21 UTC
Viento 7 kt del oeste

TAF: LPCS 311400Z 3115/3124 31012KT 9999 FEW015 BKN020 BECMG 3115/3118 SCT040 BECMG 3119/3121 27007KT

Observaciones y pronósticos meteorológicos de más de 4000 aeropuertos (mensajes METAR y TAF).

Los puntos amarillos y rojos representan las estaciones disponibles.

Ponga el ratón en el punto deseado para ver el nombre de la estación.

Haga clic para ver las observaciones y los pronósticos meteorológicos.

Para cambiar el mapa : haga clic en los botones verdes con una cruz de color negro para hacer un zoom, en el botón verde con un guión para alejar o en las flechas verdes para mapas adyacentes.


METAR-TAF: